Latest Coastal Weather Observations for Noarlunga

IDS60701

Issued at 6:55 am CST Wednesday 3 September 2014 (issued every 10 minutes, with the page automatically refreshed every 10 minutes)

About coastal observations | Map of coastal stations | Coastal observations for SA | Marine services | Other Formats
Station Details ID: 023885 Name: NOARLUNGA Lat: -35.16 Lon: 138.51 Height: 55.0 m
Data from the previous 72 hours. | See also: Recent months at Noarlunga
Date/Time
CST
Temp

°C
Wind Pressure Rain
since 9am
mm
Weather Cloud Vis
km
Sea
Height
m
Swell
Dir
 
Speed
knots
Gust
knots
hPa Trend Height
m
Period
s
Dir
03/06:30am 8.0 NE 3 5 - - 0.6 - - - - - - -
03/06:00am 7.9 ENE 5 8 - - 0.6 - - - - - - -
03/05:30am 7.8 NE 5 8 - - 0.6 - - - - - - -
03/05:00am 7.8 E 5 9 - - 0.6 - - - - - - -
03/04:30am 7.8 E 6 9 - - 0.6 - - - - - - -
03/04:00am 7.7 E 6 8 - - 0.6 - - - - - - -
03/03:30am 7.0 E 5 7 - - 0.4 - - - - - - -
03/03:00am 6.4 E 5 8 - - 0.4 - - - - - - -
03/02:30am 6.2 E 4 5 - - 0.4 - - - - - - -
03/02:00am 6.5 E 3 5 - - 0.4 - - - - - - -
03/01:30am 6.7 E 4 6 - - 0.4 - - - - - - -
03/01:00am 6.6 E 3 5 - - 0.4 - - - - - - -
03/12:30am 7.1 E 7 8 - - 0.4 - - - - - - -
03/12:00am 7.4 E 6 7 - - 0.4 - - - - - - -
 
Date/Time
CST
Temp

°C
Wind Pressure Rain
since 9am
mm
Weather Cloud Vis
km
Sea
Height
m
Swell
Dir
 
Speed
knots
Gust
knots
hPa Trend Height
m
Period
s
Dir
02/11:30pm 7.4 ESE 3 5 - - 0.4 - - - - - - -
02/11:00pm 6.9 SE 3 3 - - 0.4 - - - - - - -
02/10:30pm 7.3 CALM 0 1 - - 0.4 - - - - - - -
02/10:00pm 7.5 ESE 3 4 - - 0.4 - - - - - - -
02/09:30pm 7.9 CALM 0 0 - - 0.4 - - - - - - -
02/09:00pm 8.0 CALM 0 2 - - 0.4 - - - - - - -
02/08:30pm 8.6 ESE 3 4 - - 0.4 - - - - - - -
02/08:00pm 8.8 SE 2 3 - - 0.4 - - - - - - -
02/07:30pm 9.5 CALM 0 0 - - 0.4 - - - - - - -
02/07:00pm 10.1 SE 4 6 - - 0.4 - - - - - - -
02/06:30pm 10.9 SSE 8 10 - - 0.4 - - - - - - -
02/06:00pm 11.4 SSE 8 11 - - 0.4 - - - - - - -
02/05:30pm 12.4 S 10 13 - - 0.4 - - - - - - -
02/05:00pm 13.6 S 8 11 - - 0.4 - - - - - - -
02/04:30pm 14.6 S 5 9 - - 0.4 - - - - - - -
02/04:00pm 13.4 S 10 14 - - 0.4 - - - - - - -
02/03:30pm 14.4 S 7 9 - - 0.4 - - - - - - -
02/03:00pm 13.5 S 11 16 - - 0.4 - - - - - - -
02/02:30pm 13.9 SSW 6 10 - - 0.4 - - - - - - -
02/02:00pm 12.4 S 4 7 - - 0.4 - - - - - - -
02/01:30pm 14.5 S 7 11 - - 0.2 - - - - - - -
02/01:00pm 12.8 S 15 23 - - 0.2 - - - - - - -
02/12:56pm 13.5 S 15 23 - - 0.2 - - - - - - -
02/12:30pm 14.9 S 9 13 - - 0.2 - - - - - - -
02/12:00pm 15.1 S 8 12 - - 0.2 - - - - - - -
02/11:30am 14.7 S 11 16 - - 0.2 - - - - - - -
02/11:00am 13.1 SSW 8 14 - - 0.2 - - - - - - -
02/10:30am 13.5 SW 5 8 - - 0.2 - - - - - - -
02/10:00am 12.7 S 4 7 - - 0.2 - - - - - - -
02/09:30am 11.3 S 6 9 - - 0.2 - - - - - - -
02/09:00am 12.0 S 5 8 - - 6.8 - - - - - - -
02/08:30am 11.1 S 4 7 - - 6.8 - - - - - - -
02/08:00am 9.7 S 3 5 - - 6.8 - - - - - - -
02/07:30am 7.9 SSE 3 4 - - 6.8 - - - - - - -
02/07:00am 7.8 SSW 3 5 - - 6.8 - - - - - - -
02/06:30am 7.8 SSW 3 5 - - 6.4 - - - - - - -
02/06:00am 7.2 SE 4 7 - - 6.4 - - - - - - -
02/05:30am 7.0 SSE 2 3 - - 6.4 - - - - - - -
02/05:00am 7.6 S 5 7 - - 6.4 - - - - - - -
02/04:30am 7.6 S 5 7 - - 6.4 - - - - - - -
02/04:00am 8.2 SSW 5 9 - - 6.4 - - - - - - -
02/03:30am 7.7 S 4 6 - - 6.4 - - - - - - -
02/03:00am 7.7 S 4 5 - - 6.4 - - - - - - -
02/02:30am 8.5 S 6 9 - - 6.4 - - - - - - -
02/02:00am 9.0 SSW 6 10 - - 6.4 - - - - - - -
02/01:30am 9.1 SW 8 14 - - 6.4 - - - - - - -
02/01:00am 8.6 SSW 6 10 - - 6.4 - - - - - - -
02/12:30am 9.6 WSW 10 16 - - 6.2 - - - - - - -
02/12:00am 7.1 WSW 13 29 - - 6.0 Rain - - - - - -
 
Date/Time
CST
Temp

°C
Wind Pressure Rain
since 9am
mm
Weather Cloud Vis
km
Sea
Height
m
Swell
Dir
 
Speed
knots
Gust
knots
hPa Trend Height
m
Period
s
Dir
01/11:30pm 9.8 SW 11 16 - - 3.4 - - - - - - -
01/11:00pm 9.5 SW 7 14 - - 3.2 - - - - - - -
01/10:30pm 8.4 SSW 3 4 - - 3.2 - - - - - - -
01/10:00pm 8.2 SSW 5 9 - - 3.2 - - - - - - -
01/09:38pm 8.5 SSW 16 28 - - 2.8 - - - - - - -
01/09:36pm 9.0 SW 19 28 - - 2.4 - - - - - - -
01/09:30pm 10.7 SW 7 13 - - 0.2 - - - - - - -
01/09:00pm 10.2 SW 8 13 - - 0.0 - - - - - - -
01/08:30pm 10.6 SW 11 17 - - 0.0 - - - - - - -
01/08:00pm 10.4 SSW 9 19 - - 0.0 - - - - - - -
01/07:30pm 10.3 SW 10 19 - - 0.0 - - - - - - -
01/07:00pm 11.2 WSW 7 13 - - 0.0 - - - - - - -
01/06:30pm 11.5 WSW 9 13 - - 0.0 - - - - - - -
01/06:00pm 12.1 W 10 14 - - 0.0 - - - - - - -
01/05:30pm 12.7 W 10 17 - - 0.0 - - - - - - -
01/05:00pm 13.2 WSW 10 15 - - 0.0 - - - - - - -
01/04:30pm 13.7 W 10 17 - - 0.0 - - - - - - -
01/04:00pm 14.5 W 9 14 - - 0.0 - - - - - - -
01/03:30pm 15.1 W 10 18 - - 0.0 - - - - - - -
01/03:00pm 15.4 W 10 16 - - 0.0 - - - - - - -
01/02:30pm 15.2 W 10 17 - - 0.0 - - - - - - -
01/02:00pm 14.9 W 10 17 - - 0.0 - - - - - - -
01/01:30pm 14.8 W 10 16 - - 0.0 - - - - - - -
01/01:00pm 14.8 W 11 16 - - 0.0 - - - - - - -
01/12:30pm 14.4 W 11 16 - - 0.0 - - - - - - -
01/12:00pm 14.2 WSW 10 16 - - 0.0 - - - - - - -
01/11:30am 14.1 WSW 10 17 - - 0.0 - - - - - - -
01/11:00am 14.1 WSW 11 16 - - 0.0 - - - - - - -
01/10:30am 13.6 WSW 10 16 - - 0.0 - - - - - - -
01/10:00am 13.6 WSW 10 15 - - 0.0 - - - - - - -
01/09:30am 13.2 WSW 7 13 - - 0.0 - - - - - - -
01/09:00am 13.1 W 5 9 - - 6.6 - - - - - - -
01/08:30am 12.2 W 5 8 - - 6.6 - - - - - - -
01/08:00am 12.2 WSW 5 9 - - 6.6 - - - - - - -
01/07:30am 12.2 WSW 7 11 - - 6.6 - - - - - - -
01/07:00am 12.5 W 7 11 - - 6.6 - - - - - - -
01/06:30am 12.5 W 5 7 - - 6.6 - - - - - - -
01/06:00am 12.4 WNW 4 7 - - 6.6 - - - - - - -
01/05:30am 12.2 WNW 4 6 - - 6.6 - - - - - - -
01/05:00am 12.1 WNW 3 5 - - 6.6 - - - - - - -
01/04:30am 12.2 NW 3 5 - - 6.6 - - - - - - -
01/04:00am 12.1 WNW 2 4 - - 6.4 - - - - - - -
01/03:30am 12.1 NW 3 4 - - 6.4 - - - - - - -
01/03:00am 11.9 WNW 2 4 - - 6.4 Rain - - - - - -
01/02:30am 11.8 WNW 2 4 - - 5.8 - - - - - - -
01/02:00am 11.6 W 2 2 - - 5.2 - - - - - - -
01/01:30am 11.5 WNW 2 4 - - 4.2 - - - - - - -
01/01:00am 11.9 WSW 5 8 - - 2.8 - - - - - - -
01/12:30am 12.7 WSW 6 10 - - 1.6 - - - - - - -
01/12:00am 13.6 WNW 5 8 - - 0.0 - - - - - - -
 
Date/Time
CST
Temp

°C
Wind Pressure Rain
since 9am
mm
Weather Cloud Vis
km
Sea
Height
m
Swell
Dir
 
Speed
knots
Gust
knots
hPa Trend Height
m
Period
s
Dir
31/11:30pm 13.7 W 3 6 - - 0.0 - - - - - - -
31/11:00pm 13.9 W 5 9 - - 0.0 - - - - - - -
31/10:30pm 14.2 NNW 5 7 - - 0.0 - - - - - - -
31/10:00pm 14.3 W 4 6 - - 0.0 - - - - - - -
31/09:30pm 14.5 W 3 5 - - 0.0 - - - - - - -
31/09:00pm 14.8 WNW 5 7 - - 0.0 - - - - - - -
31/08:30pm 15.3 W 4 6 - - 0.0 - - - - - - -
31/08:00pm 16.2 N 3 8 - - 0.0 - - - - - - -
31/07:30pm 17.0 WNW 7 12 - - 0.0 - - - - - - -
31/07:00pm 17.4 N 4 7 - - 0.0 - - - - - - -
31/06:30pm 17.2 NNW 5 7 - - 0.0 - - - - - - -
31/06:00pm 17.5 NW 6 8 - - 0.0 - - - - - - -
31/05:30pm 17.2 WNW 11 16 - - 0.0 - - - - - - -
31/05:00pm 20.9 N 12 17 - - 0.0 - - - - - - -
31/04:30pm 21.4 N 13 21 - - 0.0 - - - - - - -
31/04:00pm 21.9 N 11 17 - - 0.0 - - - - - - -
31/03:30pm 22.2 N 14 20 - - 0.0 - - - - - - -
31/03:00pm 21.8 N 16 23 - - 0.0 - - - - - - -
31/02:30pm 20.6 N 17 22 - - 0.0 - - - - - - -
31/02:00pm 19.6 N 15 22 - - 0.0 - - - - - - -
31/01:30pm 20.0 N 14 20 - - 0.0 - - - - - - -
31/01:00pm 20.2 N 16 23 - - 0.0 - - - - - - -
31/12:30pm 21.9 N 18 27 - - 0.0 - - - - - - -
31/12:00pm 21.1 N 21 28 - - 0.0 - - - - - - -
31/11:30am 20.7 N 18 27 - - 0.0 - - - - - - -
31/11:00am 19.7 N 20 28 - - 0.0 - - - - - - -
31/10:30am 19.0 N 19 30 - - 0.0 - - - - - - -
31/10:22am 19.4 N 19 30 - - 0.0 - - - - - - -
31/10:00am 19.4 N 16 25 - - 0.0 - - - - - - -
31/09:30am 18.8 N 14 19 - - 0.0 - - - - - - -
31/09:00am 18.3 N 12 17 - - 0.0 - - - - - - -
31/08:30am 17.5 NNE 13 19 - - 0.0 - - - - - - -
31/08:00am 17.2 N 12 17 - - 0.0 - - - - - - -
31/07:30am 16.8 N 12 16 - - 0.0 - - - - - - -
31/07:00am 16.6 N 12 17 - - 0.0 - - - - - - -

Other Formats:

Comma delimited format used in spreadsheet applications
http://www.bom.gov.au/fwo/IDS60701/IDS60701.94808.axf

JavaScript Object Notation format (JSON) in row-major order
http://www.bom.gov.au/fwo/IDS60701/IDS60701.94808.json